createdAt,value
2023-04-22T00:00:14.931Z,6.80
2023-04-22T00:02:43.747Z,7.63
2023-04-22T00:05:15.163Z,7.90
2023-04-22T00:07:45.727Z,7.13
2023-04-22T00:10:15.706Z,6.83
2023-04-22T00:12:44.232Z,7.10
2023-04-22T00:15:13.350Z,6.90
2023-04-22T00:17:42.787Z,6.50
2023-04-22T00:20:12.804Z,6.87
2023-04-22T00:22:41.241Z,7.00
2023-04-22T00:25:10.700Z,6.50
2023-04-22T00:27:40.600Z,6.83
2023-04-22T00:30:10.956Z,7.63
2023-04-22T00:32:39.802Z,8.20
2023-04-22T00:35:09.658Z,7.43
2023-04-22T00:37:38.655Z,7.23
2023-04-22T00:40:09.157Z,6.70
2023-04-22T00:42:40.573Z,7.80
2023-04-22T00:45:13.699Z,7.03
2023-04-22T00:47:43.379Z,7.00
2023-04-22T00:50:12.411Z,7.03
2023-04-22T00:52:40.872Z,6.43
2023-04-22T00:55:10.692Z,7.43
2023-04-22T00:57:41.474Z,6.83
2023-04-22T01:00:11.726Z,7.60
2023-04-22T01:02:40.543Z,6.87
2023-04-22T01:05:10.528Z,7.60
2023-04-22T01:07:39.081Z,6.87
2023-04-22T01:10:09.222Z,6.53
2023-04-22T01:12:37.782Z,6.60
2023-04-22T01:15:09.742Z,6.60
2023-04-22T01:17:38.607Z,6.97
2023-04-22T01:20:10.447Z,7.33
2023-04-22T01:22:45.561Z,7.63
2023-04-22T01:25:15.409Z,8.07
2023-04-22T01:27:44.699Z,7.50
2023-04-22T01:30:18.803Z,8.10
2023-04-22T01:32:47.971Z,7.17
2023-04-22T01:35:16.464Z,7.23
2023-04-22T01:37:45.676Z,7.37
2023-04-22T01:40:19.791Z,7.60
2023-04-22T01:42:48.464Z,8.23
2023-04-22T01:45:17.641Z,8.63
2023-04-22T01:48:15.258Z,8.30
2023-04-22T01:51:07.242Z,8.33
2023-04-22T01:53:37.114Z,7.77
2023-04-22T01:56:20.179Z,8.83
2023-04-22T01:58:49.112Z,7.53
2023-04-22T02:01:17.700Z,8.03
2023-04-22T02:03:46.367Z,8.43
2023-04-22T02:06:14.976Z,7.80
2023-04-22T02:08:43.490Z,8.13
2023-04-22T02:11:12.019Z,9.10
2023-04-22T02:13:42.913Z,8.63
2023-04-22T02:16:11.747Z,8.97
2023-04-22T02:18:40.237Z,9.00
2023-04-22T02:21:08.744Z,8.17
2023-04-22T02:23:38.583Z,7.77
2023-04-22T02:26:09.010Z,8.23
2023-04-22T02:28:37.472Z,9.70
2023-04-22T02:31:07.528Z,8.90
2023-04-22T02:33:36.458Z,9.03
2023-04-22T02:36:05.328Z,8.20
2023-04-22T02:38:33.826Z,9.17
2023-04-22T02:41:40.875Z,8.37
2023-04-22T02:44:09.333Z,8.20
2023-04-22T02:46:39.303Z,7.57
2023-04-22T02:49:07.822Z,7.37
2023-04-22T02:51:36.316Z,7.97
2023-04-22T02:54:04.919Z,8.33
2023-04-22T02:56:33.440Z,8.10
2023-04-22T02:59:01.911Z,7.40
2023-04-22T03:01:30.972Z,7.53
2023-04-22T03:04:01.134Z,8.17
2023-04-22T03:06:29.772Z,7.30
2023-04-22T03:08:58.272Z,7.90
2023-04-22T03:11:27.165Z,7.37
2023-04-22T03:13:55.601Z,7.37
2023-04-22T03:16:25.611Z,7.50
2023-04-22T03:18:54.026Z,7.13
2023-04-22T03:21:23.853Z,7.77
2023-04-22T03:23:52.402Z,8.57
2023-04-22T03:26:20.871Z,11.40
2023-04-22T03:28:57.996Z,8.83
2023-04-22T03:31:26.678Z,8.13
2023-04-22T03:33:55.113Z,8.20
2023-04-22T03:36:26.731Z,7.50
2023-04-22T03:38:55.231Z,8.13
2023-04-22T03:41:26.415Z,7.83
2023-04-22T03:44:02.889Z,8.07
2023-04-22T03:46:31.705Z,7.50
2023-04-22T03:49:00.199Z,8.10
2023-04-22T03:51:30.172Z,8.73
2023-04-22T03:53:58.660Z,9.17
2023-04-22T03:56:27.130Z,7.67
2023-04-22T03:58:55.665Z,7.97
2023-04-22T04:01:24.833Z,7.60
2023-04-22T04:03:53.634Z,7.53
2023-04-22T04:06:22.318Z,7.30
2023-04-22T04:08:52.157Z,7.43
2023-04-22T04:11:20.671Z,7.00
2023-04-22T04:13:49.152Z,7.00
2023-04-22T04:16:17.641Z,6.77
2023-04-22T04:18:46.219Z,7.50
2023-04-22T04:21:14.647Z,7.13
2023-04-22T04:23:43.069Z,6.80
2023-04-22T04:26:12.908Z,6.77
2023-04-22T04:28:41.695Z,7.23
2023-04-22T04:31:10.169Z,7.20
2023-04-22T04:33:39.345Z,7.10
2023-04-22T04:36:10.704Z,7.03
2023-04-22T04:38:53.081Z,6.87
2023-04-22T04:44:40.678Z,6.10
2023-04-22T04:47:09.102Z,6.90
2023-04-22T04:49:40.723Z,6.87
2023-04-22T04:52:24.815Z,6.60
2023-04-22T04:54:53.329Z,7.23
2023-04-22T04:57:23.216Z,7.27
2023-04-22T04:59:51.695Z,7.33
2023-04-22T05:02:20.378Z,7.77
2023-04-22T05:04:48.990Z,8.00
2023-04-22T05:07:17.659Z,7.57
2023-04-22T05:09:46.103Z,8.07
2023-04-22T05:12:15.333Z,7.97
2023-04-22T05:14:46.575Z,8.97
2023-04-22T05:17:15.569Z,10.93
2023-04-22T05:19:44.033Z,8.43
2023-04-22T05:22:12.531Z,9.23
2023-04-22T05:24:43.755Z,9.40
2023-04-22T05:27:12.506Z,9.17
2023-04-22T05:29:41.200Z,8.67
2023-04-22T05:32:11.633Z,8.77
2023-04-22T05:34:40.190Z,8.40
2023-04-22T05:37:14.724Z,7.97
2023-04-22T05:39:43.252Z,8.87
2023-04-22T05:42:12.280Z,8.97
2023-04-22T05:44:41.051Z,9.03
2023-04-22T05:47:10.947Z,9.23
2023-04-22T05:49:45.365Z,8.80
2023-04-22T05:52:23.303Z,8.60
2023-04-22T05:54:51.723Z,9.07
2023-04-22T05:57:20.274Z,8.03
2023-04-22T05:59:48.680Z,9.77
2023-04-22T06:02:18.730Z,8.30
2023-04-22T06:04:47.363Z,8.00
2023-04-22T06:07:15.995Z,7.83
2023-04-22T06:09:44.490Z,8.37
2023-04-22T06:12:13.142Z,8.50
2023-04-22T06:14:41.545Z,7.60
2023-04-22T06:17:10.379Z,7.17
2023-04-22T06:19:40.446Z,7.57
2023-04-22T06:22:09.053Z,7.13
2023-04-22T06:24:37.460Z,7.10
2023-04-22T06:27:05.885Z,7.87
2023-04-22T06:29:34.805Z,8.07
2023-04-22T06:32:03.578Z,7.50
2023-04-22T06:34:32.087Z,7.67
2023-04-22T06:37:01.903Z,6.87
2023-04-22T06:39:30.434Z,7.17
2023-04-22T06:41:58.848Z,7.30
2023-04-22T06:44:27.958Z,6.50
2023-04-22T06:46:58.097Z,6.40
2023-04-22T06:49:26.901Z,5.73
2023-04-22T06:51:55.407Z,6.10
2023-04-22T06:54:25.315Z,6.67
2023-04-22T06:56:53.834Z,6.53
2023-04-22T06:59:22.319Z,6.77
2023-04-22T07:01:50.998Z,5.97
2023-04-22T07:04:19.557Z,5.03
2023-04-22T07:06:48.146Z,5.50
2023-04-22T07:09:19.539Z,5.70
2023-04-22T07:11:49.332Z,5.93
2023-04-22T07:14:17.842Z,7.23
2023-04-22T07:16:46.333Z,6.13
2023-04-22T07:19:14.784Z,5.70
2023-04-22T07:21:43.241Z,5.40
2023-04-22T07:24:13.216Z,5.33
2023-04-22T07:26:43.458Z,5.50
2023-04-22T07:29:13.512Z,5.77
2023-04-22T07:31:42.034Z,5.37
2023-04-22T07:34:11.014Z,5.20
2023-04-22T07:36:39.641Z,5.37
2023-04-22T07:39:11.560Z,4.60
2023-04-22T07:41:40.085Z,4.60
2023-04-22T07:44:18.494Z,4.23
2023-04-22T07:46:51.581Z,4.20
2023-04-22T07:49:21.361Z,4.03
2023-04-22T07:51:49.872Z,4.60
2023-04-22T07:54:18.265Z,4.50
2023-04-22T07:56:46.751Z,4.20
2023-04-22T07:59:16.613Z,4.57
2023-04-22T08:02:00.712Z,4.40
2023-04-22T08:04:29.268Z,4.57
2023-04-22T08:06:57.939Z,4.00
2023-04-22T08:09:26.438Z,4.80
2023-04-22T08:11:55.051Z,4.50
2023-04-22T08:14:24.963Z,4.40
2023-04-22T08:16:53.909Z,4.37
2023-04-22T08:19:22.460Z,3.63
2023-04-22T08:21:51.758Z,4.43
2023-04-22T08:24:20.369Z,4.00
2023-04-22T08:26:48.916Z,4.50
2023-04-22T08:29:17.465Z,4.03
2023-04-22T08:31:47.342Z,4.30
2023-04-22T08:34:36.716Z,4.67
2023-04-22T08:37:05.842Z,3.90
2023-04-22T08:39:34.393Z,4.27
2023-04-22T08:42:02.993Z,3.70
2023-04-22T08:44:32.068Z,4.27
2023-04-22T08:47:06.589Z,4.57
2023-04-22T08:49:41.145Z,4.70
2023-04-22T08:52:12.822Z,3.73
2023-04-22T08:54:41.336Z,4.67
2023-04-22T08:57:11.452Z,4.43
2023-04-22T08:59:41.349Z,4.37
2023-04-22T09:02:20.339Z,3.90
2023-04-22T09:04:52.408Z,4.10
2023-04-22T09:07:25.819Z,4.30
2023-04-22T09:09:56.425Z,4.60
2023-04-22T09:12:26.378Z,4.50
2023-04-22T09:14:55.546Z,4.83
2023-04-22T09:17:33.976Z,4.43
2023-04-22T09:20:04.511Z,4.63
2023-04-22T09:22:41.186Z,4.47
2023-04-22T09:25:18.229Z,4.27
2023-04-22T09:27:51.760Z,4.33
2023-04-22T09:30:25.784Z,4.10
2023-04-22T09:32:57.797Z,4.20
2023-04-22T09:35:31.152Z,5.20
2023-04-22T09:38:11.272Z,4.30
2023-04-22T09:40:43.654Z,4.63
2023-04-22T09:43:12.809Z,4.07
2023-04-22T09:45:44.163Z,4.07
2023-04-22T09:48:16.633Z,4.03
2023-04-22T09:50:48.624Z,4.30
2023-04-22T09:53:19.298Z,4.03
2023-04-22T09:55:56.809Z,3.80
2023-04-22T09:58:27.621Z,4.70
2023-04-22T10:01:00.732Z,4.13
2023-04-22T10:03:30.938Z,3.90
2023-04-22T10:05:59.627Z,3.83
2023-04-22T10:08:28.612Z,3.77
2023-04-22T10:10:57.526Z,4.33
2023-04-22T10:13:25.946Z,4.13
2023-04-22T10:15:57.688Z,4.60
2023-04-22T10:18:37.525Z,3.83
2023-04-22T10:21:07.571Z,3.10
2023-04-22T10:23:36.212Z,3.57
2023-04-22T10:26:07.151Z,3.90
2023-04-22T10:28:35.911Z,4.17
2023-04-22T10:31:08.454Z,4.43
2023-04-22T10:33:42.604Z,4.33
2023-04-22T10:36:17.997Z,3.83
2023-04-22T10:39:22.084Z,4.00
2023-04-22T10:41:58.061Z,4.40
2023-04-22T10:44:31.499Z,3.73
2023-04-22T10:47:03.398Z,3.30
2023-04-22T10:49:34.879Z,3.63
2023-04-22T10:52:05.190Z,3.43
2023-04-22T10:55:02.141Z,3.60
2023-04-22T10:57:41.576Z,3.17
2023-04-22T11:00:53.084Z,3.93
2023-04-22T11:03:29.949Z,3.93
2023-04-22T11:06:22.413Z,3.27
2023-04-22T11:09:13.018Z,3.80
2023-04-22T11:11:41.598Z,3.67
2023-04-22T11:14:11.642Z,3.70
2023-04-22T11:16:40.325Z,3.30
2023-04-22T11:19:40.669Z,3.37
2023-04-22T11:22:12.198Z,3.40
2023-04-22T11:24:40.617Z,3.70
2023-04-22T11:27:09.014Z,3.73
2023-04-22T11:29:37.796Z,3.43
2023-04-22T11:32:06.700Z,2.80
2023-04-22T11:34:35.177Z,2.47
2023-04-22T11:37:03.695Z,2.47
2023-04-22T11:39:46.508Z,3.03
2023-04-22T11:42:43.575Z,2.70
2023-04-22T11:45:13.584Z,3.20
2023-04-22T11:47:43.030Z,3.30
2023-04-22T11:50:13.800Z,3.00
2023-04-22T11:52:49.777Z,2.90
2023-04-22T11:55:23.992Z,2.60
2023-04-22T11:58:01.203Z,2.90
2023-04-22T12:00:34.923Z,2.87
2023-04-22T12:03:05.448Z,2.83
2023-04-22T12:05:37.337Z,2.90
2023-04-22T12:08:10.810Z,2.57
2023-04-22T12:10:46.576Z,2.77
2023-04-22T12:13:23.066Z,2.80
2023-04-22T12:15:57.062Z,3.00
2023-04-22T12:18:32.317Z,2.43
2023-04-22T12:21:23.680Z,2.40
2023-04-22T12:23:55.457Z,2.70
2023-04-22T12:26:27.753Z,2.53
2023-04-22T12:29:36.712Z,2.30
2023-04-22T12:32:05.198Z,2.43
2023-04-22T12:34:41.609Z,2.40
2023-04-22T12:37:10.241Z,2.50
2023-04-22T12:39:38.891Z,2.80
2023-04-22T12:42:09.018Z,3.27
2023-04-22T12:44:38.145Z,3.67
2023-04-22T12:47:06.704Z,5.57
2023-04-22T12:49:36.469Z,5.57
2023-04-22T12:52:04.925Z,4.53
2023-04-22T12:54:33.340Z,4.50
2023-04-22T12:57:02.726Z,3.90
2023-04-22T12:59:32.612Z,4.23
2023-04-22T13:02:01.133Z,5.87
2023-04-22T13:04:29.729Z,3.30
2023-04-22T13:06:58.198Z,3.00
2023-04-22T13:09:27.125Z,2.57
2023-04-22T13:11:55.599Z,3.70
2023-04-22T13:14:24.112Z,11.37
2023-04-22T13:16:54.200Z,4.03
2023-04-22T13:19:25.618Z,2.80
2023-04-22T13:21:54.278Z,3.80
2023-04-22T13:24:22.790Z,2.67
2023-04-22T13:26:51.381Z,2.60
2023-04-22T13:29:19.882Z,2.63
2023-04-22T13:31:48.344Z,2.60
2023-04-22T13:34:18.169Z,2.60
2023-04-22T13:36:47.205Z,2.27
2023-04-22T13:39:15.972Z,2.70
2023-04-22T13:41:44.645Z,2.57
2023-04-22T13:44:13.825Z,3.60
2023-04-22T13:46:43.964Z,2.80
2023-04-22T13:49:12.817Z,2.90
2023-04-22T13:51:42.679Z,2.20
2023-04-22T13:54:11.100Z,3.13
2023-04-22T13:56:39.672Z,2.30
2023-04-22T13:59:08.099Z,1.90
2023-04-22T14:01:39.621Z,2.37
2023-04-22T14:04:08.312Z,2.60
2023-04-22T14:06:36.970Z,4.20
2023-04-22T14:09:07.084Z,6.47
2023-04-22T14:11:35.562Z,2.87
2023-04-22T14:14:04.273Z,6.07
2023-04-22T14:16:33.752Z,3.10
2023-04-22T14:19:02.837Z,2.30
2023-04-22T14:21:31.358Z,6.23
2023-04-22T14:23:59.785Z,5.67
2023-04-22T14:26:29.781Z,4.03
2023-04-22T14:28:58.285Z,4.40
2023-04-22T14:31:27.600Z,2.73
2023-04-22T14:33:56.303Z,2.40
2023-04-22T14:36:24.905Z,3.00
2023-04-22T14:38:53.456Z,3.30
2023-04-22T14:41:22.384Z,3.50
2023-04-22T14:43:52.228Z,2.87
2023-04-22T14:46:20.737Z,3.10
2023-04-22T14:48:50.371Z,2.60
2023-04-22T14:51:19.005Z,2.73
2023-04-22T14:53:47.604Z,2.40
2023-04-22T14:56:16.177Z,2.53
2023-04-22T14:58:44.961Z,2.97
2023-04-22T15:01:14.856Z,2.73
2023-04-22T15:03:43.577Z,3.07
2023-04-22T15:06:12.197Z,2.70
2023-04-22T15:08:40.957Z,2.40
2023-04-22T15:11:09.430Z,2.30
2023-04-22T15:13:37.938Z,2.40
2023-04-22T15:16:06.844Z,2.57
2023-04-22T15:18:36.993Z,2.40
2023-04-22T15:21:08.111Z,2.37
2023-04-22T15:23:36.509Z,2.33
2023-04-22T15:26:05.060Z,2.47
2023-04-22T15:28:34.179Z,2.47
2023-04-22T15:31:03.284Z,2.30
2023-04-22T15:33:52.092Z,2.40
2023-04-22T15:36:21.686Z,2.70
2023-04-22T15:38:56.038Z,2.50
2023-04-22T15:41:28.363Z,3.00
2023-04-22T15:43:56.938Z,3.20
2023-04-22T15:46:25.382Z,2.90
2023-04-22T15:48:57.411Z,3.03
2023-04-22T15:51:25.966Z,3.10
2023-04-22T15:53:55.212Z,3.13
2023-04-22T15:56:24.385Z,3.07
2023-04-22T15:58:53.175Z,2.73
2023-04-22T16:01:41.371Z,3.30
2023-04-22T16:04:12.082Z,2.73
2023-04-22T16:06:40.815Z,2.83
2023-04-22T16:09:09.376Z,3.07
2023-04-22T16:11:37.794Z,3.20
2023-04-22T16:14:06.284Z,2.70
2023-04-22T16:16:34.911Z,3.43
2023-04-22T16:19:04.018Z,3.20
2023-04-22T16:21:34.031Z,2.83
2023-04-22T16:24:02.543Z,3.37
2023-04-22T16:26:31.009Z,3.00
2023-04-22T16:28:59.535Z,2.90
2023-04-22T16:31:28.034Z,2.77
2023-04-22T16:33:56.466Z,3.43
2023-04-22T16:36:24.897Z,3.20
2023-04-22T16:39:00.706Z,3.10
2023-04-22T16:41:29.376Z,3.20
2023-04-22T16:43:58.243Z,3.77
2023-04-22T16:46:26.870Z,2.93
2023-04-22T16:48:55.356Z,2.90
2023-04-22T16:51:23.785Z,3.53
2023-04-22T16:53:52.271Z,3.40
2023-04-22T16:56:24.022Z,3.07
2023-04-22T16:59:20.015Z,3.30
2023-04-22T17:01:48.510Z,3.23
2023-04-22T17:04:17.170Z,3.07
2023-04-22T17:06:46.027Z,3.17
2023-04-22T17:09:14.528Z,3.23
2023-04-22T17:11:44.525Z,3.43
2023-04-22T17:14:13.053Z,6.47
2023-04-22T17:16:41.855Z,4.27
2023-04-22T17:19:10.375Z,3.70
2023-04-22T17:21:38.816Z,3.57
2023-04-22T17:24:07.628Z,3.67
2023-04-22T17:26:37.109Z,3.70
2023-04-22T17:29:07.089Z,3.20
2023-04-22T17:31:35.700Z,3.90
2023-04-22T17:34:04.487Z,3.30
2023-04-22T17:36:32.904Z,3.70
2023-04-22T17:39:01.358Z,4.00
2023-04-22T17:41:29.882Z,3.60
2023-04-22T17:43:59.304Z,3.70
2023-04-22T17:46:39.284Z,3.80
2023-04-22T17:49:07.738Z,3.40
2023-04-22T17:51:36.304Z,3.30
2023-04-22T17:54:05.366Z,3.20
2023-04-22T17:56:33.787Z,3.17
2023-04-22T17:59:02.287Z,3.57
2023-04-22T18:01:31.222Z,3.43
2023-04-22T18:04:01.429Z,3.53
2023-04-22T18:06:30.451Z,4.37
2023-04-22T18:08:58.912Z,3.90
2023-04-22T18:11:28.026Z,4.07
2023-04-22T18:13:56.620Z,4.03
2023-04-22T18:16:25.222Z,4.57
2023-04-22T18:18:53.666Z,4.90
2023-04-22T18:21:23.560Z,4.33
2023-04-22T18:23:53.217Z,4.27
2023-04-22T18:26:21.792Z,4.47
2023-04-22T18:28:50.241Z,4.30
2023-04-22T18:31:18.712Z,4.60
2023-04-22T18:33:47.206Z,4.40
2023-04-22T18:36:15.632Z,4.70
2023-04-22T18:38:45.572Z,4.60
2023-04-22T18:41:14.725Z,4.80
2023-04-22T18:43:43.154Z,5.00
2023-04-22T18:46:11.707Z,4.43
2023-04-22T18:48:40.498Z,4.20
2023-04-22T18:51:09.346Z,4.07
2023-04-22T18:53:37.809Z,4.30
2023-04-22T18:56:07.969Z,7.23
2023-04-22T18:58:36.870Z,6.03
2023-04-22T19:01:05.975Z,5.40
2023-04-22T19:03:34.646Z,4.90
2023-04-22T19:06:03.207Z,4.80
2023-04-22T19:08:31.707Z,5.07
2023-04-22T19:11:00.530Z,5.37
2023-04-22T19:13:30.517Z,5.27
2023-04-22T19:16:00.054Z,5.60
2023-04-22T19:18:28.620Z,5.43
2023-04-22T19:20:57.131Z,5.47
2023-04-22T19:23:25.683Z,5.07
2023-04-22T19:25:54.185Z,4.80
2023-04-22T19:28:22.598Z,5.70
2023-04-22T19:30:52.712Z,4.77
2023-04-22T19:33:46.555Z,4.67
2023-04-22T19:36:14.993Z,4.70
2023-04-22T19:38:43.857Z,4.93
2023-04-22T19:41:12.413Z,5.40
2023-04-22T19:43:41.200Z,6.63
2023-04-22T19:46:11.105Z,6.40
2023-04-22T19:48:40.758Z,7.53
2023-04-22T19:51:12.789Z,7.03
2023-04-22T19:53:42.631Z,7.77
2023-04-22T19:56:11.540Z,7.90
2023-04-22T19:58:41.033Z,6.73
2023-04-22T20:01:12.224Z,5.40
2023-04-22T20:03:41.617Z,4.93
2023-04-22T20:06:12.723Z,4.60
2023-04-22T20:08:43.715Z,4.83
2023-04-22T20:11:13.084Z,4.07
2023-04-22T20:13:42.408Z,4.90
2023-04-22T20:16:31.984Z,4.63
2023-04-22T20:19:00.733Z,3.87
2023-04-22T20:21:30.356Z,4.60
2023-04-22T20:23:59.928Z,5.13
2023-04-22T20:26:28.790Z,8.00
2023-04-22T20:28:57.521Z,7.33
2023-04-22T20:31:26.365Z,7.40
2023-04-22T20:33:57.202Z,6.73
2023-04-22T20:36:26.449Z,5.63
2023-04-22T20:39:06.764Z,5.43
2023-04-22T20:41:39.938Z,4.83
2023-04-22T20:44:08.560Z,5.13
2023-04-22T20:46:37.944Z,4.80
2023-04-22T20:49:08.166Z,5.20
2023-04-22T20:51:36.608Z,5.07
2023-04-22T20:54:09.816Z,5.43
2023-04-22T20:56:46.219Z,5.67
2023-04-22T20:59:14.803Z,5.93
2023-04-22T21:01:43.903Z,5.00
2023-04-22T21:04:15.825Z,5.50
2023-04-22T21:07:17.868Z,5.40
2023-04-22T21:09:46.927Z,5.50
2023-04-22T21:12:18.272Z,5.37
2023-04-22T21:14:47.807Z,5.60
2023-04-22T21:17:22.204Z,5.30
2023-04-22T21:19:56.952Z,4.97
2023-04-22T21:22:26.411Z,5.40
2023-04-22T21:24:55.915Z,6.23
2023-04-22T21:27:25.084Z,5.63
2023-04-22T21:29:54.438Z,7.30
2023-04-22T21:32:22.962Z,8.00
2023-04-22T21:34:52.793Z,6.80
2023-04-22T21:37:21.301Z,6.10
2023-04-22T21:39:49.753Z,6.23
2023-04-22T21:42:18.306Z,5.67
2023-04-22T21:44:49.829Z,6.70
2023-04-22T21:47:18.834Z,5.70
2023-04-22T21:49:47.626Z,6.10
2023-04-22T21:52:17.578Z,5.43
2023-04-22T21:54:46.103Z,5.20
2023-04-22T21:57:15.012Z,5.13
2023-04-22T21:59:43.479Z,5.23
2023-04-22T22:02:11.951Z,5.33
2023-04-22T22:04:40.978Z,6.03
2023-04-22T22:07:09.811Z,5.20
2023-04-22T22:09:40.927Z,5.43
2023-04-22T22:12:12.151Z,4.97
2023-04-22T22:14:40.864Z,5.30
2023-04-22T22:17:09.756Z,5.40
2023-04-22T22:20:11.868Z,5.20
2023-04-22T22:22:40.948Z,4.83
2023-04-22T22:25:13.959Z,5.13
2023-04-22T22:27:45.580Z,4.77
2023-04-22T22:30:14.948Z,4.57
2023-04-22T22:32:43.662Z,5.23
2023-04-22T22:35:12.336Z,5.17
2023-04-22T22:37:41.137Z,4.80
2023-04-22T22:40:13.109Z,5.23
2023-04-22T22:42:41.479Z,4.63
2023-04-22T22:45:11.734Z,4.30
2023-04-22T22:47:40.322Z,5.10
2023-04-22T22:50:10.120Z,4.50
2023-04-22T22:52:38.613Z,4.63
2023-04-22T22:55:08.257Z,4.93
2023-04-22T22:57:53.403Z,4.57
2023-04-22T23:00:22.256Z,5.17
2023-04-22T23:03:05.626Z,5.77
2023-04-22T23:05:34.276Z,5.60
2023-04-22T23:08:02.696Z,5.53
2023-04-22T23:10:31.500Z,5.40
2023-04-22T23:13:01.371Z,5.00
2023-04-22T23:15:29.996Z,5.07
2023-04-22T23:17:58.668Z,5.40
2023-04-22T23:20:28.487Z,4.53
2023-04-22T23:22:58.630Z,4.73
2023-04-22T23:25:28.030Z,4.63
2023-04-22T23:27:56.609Z,4.60
2023-04-22T23:30:43.958Z,5.70
2023-04-22T23:33:15.605Z,5.33
2023-04-22T23:35:45.920Z,5.10
2023-04-22T23:38:14.340Z,5.40
2023-04-22T23:40:42.815Z,5.17
2023-04-22T23:43:21.207Z,5.10
2023-04-22T23:45:51.229Z,5.40
2023-04-22T23:48:19.714Z,5.50
2023-04-22T23:51:10.215Z,5.43
2023-04-22T23:53:38.615Z,5.50
2023-04-22T23:56:09.296Z,5.33
2023-04-22T23:58:38.597Z,5.60
